createdAt,value
2022-11-14T00:01:28.207Z,29.03
2022-11-14T00:03:56.325Z,30.47
2022-11-14T00:06:24.609Z,30.00
2022-11-14T00:08:54.218Z,29.17
2022-11-14T00:11:22.437Z,30.17
2022-11-14T00:13:50.542Z,28.00
2022-11-14T00:16:18.697Z,29.13
2022-11-14T00:18:46.790Z,29.23
2022-11-14T00:21:15.021Z,30.07
2022-11-14T00:23:43.263Z,30.67
2022-11-14T00:26:12.795Z,30.43
2022-11-14T00:28:41.046Z,31.23
2022-11-14T00:31:10.795Z,30.70
2022-11-14T00:33:40.149Z,29.13
2022-11-14T00:36:08.438Z,29.37
2022-11-14T00:38:36.578Z,29.47
2022-11-14T00:41:04.900Z,29.30
2022-11-14T00:43:34.528Z,30.43
2022-11-14T00:46:02.707Z,31.10
2022-11-14T00:48:31.415Z,30.43
2022-11-14T00:50:59.918Z,30.10
2022-11-14T00:53:28.067Z,31.77
2022-11-14T00:55:56.279Z,30.03
2022-11-14T00:58:24.505Z,29.57
2022-11-14T01:00:54.848Z,29.60
2022-11-14T01:03:22.946Z,29.80
2022-11-14T01:05:52.550Z,28.93
2022-11-14T01:08:21.486Z,28.80
2022-11-14T01:10:50.852Z,28.97
2022-11-14T01:13:19.927Z,31.20
2022-11-14T01:15:50.054Z,29.40
2022-11-14T01:18:22.404Z,30.37
2022-11-14T01:20:50.718Z,28.97
2022-11-14T01:23:18.987Z,29.37
2022-11-14T01:25:47.206Z,29.40
2022-11-14T01:28:17.266Z,28.37
2022-11-14T01:30:45.783Z,28.87
2022-11-14T01:33:13.907Z,28.67
2022-11-14T01:35:43.707Z,29.83
2022-11-14T01:38:14.899Z,30.03
2022-11-14T01:40:44.449Z,30.63
2022-11-14T01:43:26.546Z,29.00
2022-11-14T01:45:57.530Z,29.97
2022-11-14T01:48:28.775Z,29.37
2022-11-14T01:51:34.539Z,28.63
2022-11-14T01:54:05.753Z,28.00
2022-11-14T01:56:36.053Z,27.83
2022-11-14T01:59:06.881Z,29.30
2022-11-14T02:01:38.125Z,29.33
2022-11-14T02:04:08.870Z,29.37
2022-11-14T02:06:41.127Z,27.93
2022-11-14T02:09:11.353Z,30.60
2022-11-14T02:11:42.561Z,28.33
2022-11-14T02:14:11.135Z,27.60
2022-11-14T02:16:40.682Z,28.13
2022-11-14T02:19:09.344Z,27.07
2022-11-14T02:21:39.155Z,29.10
2022-11-14T02:24:11.302Z,27.93
2022-11-14T02:26:40.813Z,29.00
2022-11-14T02:29:11.082Z,30.03
2022-11-14T02:31:39.941Z,29.03
2022-11-14T02:34:08.182Z,28.23
2022-11-14T02:36:36.413Z,28.07
2022-11-14T02:39:06.125Z,26.47
2022-11-14T02:41:35.432Z,26.50
2022-11-14T02:44:03.734Z,25.90
2022-11-14T02:46:32.041Z,27.93
2022-11-14T02:49:00.263Z,28.13
2022-11-14T02:51:28.411Z,28.27
2022-11-14T02:53:56.491Z,28.73
2022-11-14T02:56:26.149Z,28.27
2022-11-14T02:58:54.270Z,27.47
2022-11-14T03:01:22.635Z,26.43
2022-11-14T03:03:50.842Z,27.10
2022-11-14T03:06:18.971Z,28.40
2022-11-14T03:08:47.091Z,28.13
2022-11-14T03:11:15.251Z,29.23
2022-11-14T03:13:45.883Z,27.23
2022-11-14T03:16:15.423Z,27.27
2022-11-14T03:18:43.541Z,26.50
2022-11-14T03:21:14.121Z,27.53
2022-11-14T03:23:42.682Z,26.63
2022-11-14T03:26:11.894Z,26.27
2022-11-14T03:28:42.035Z,26.97
2022-11-14T03:31:13.490Z,25.70
2022-11-14T03:33:41.992Z,28.47
2022-11-14T03:36:10.332Z,26.97
2022-11-14T03:38:38.501Z,26.77
2022-11-14T03:41:06.771Z,27.63
2022-11-14T03:43:36.914Z,25.57
2022-11-14T03:46:05.571Z,25.57
2022-11-14T03:48:35.164Z,25.77
2022-11-14T03:51:03.331Z,25.23
2022-11-14T03:53:31.409Z,24.13
2022-11-14T03:55:59.530Z,24.93
2022-11-14T03:58:28.091Z,25.50
2022-11-14T04:00:56.691Z,25.93
2022-11-14T04:03:24.899Z,24.00
2022-11-14T04:05:54.524Z,23.97
2022-11-14T04:08:22.611Z,25.13
2022-11-14T04:10:51.151Z,24.30
2022-11-14T04:13:19.331Z,26.17
2022-11-14T04:15:47.571Z,26.20
2022-11-14T04:18:15.809Z,24.93
2022-11-14T04:20:43.964Z,26.50
2022-11-14T04:23:13.541Z,25.23
2022-11-14T04:25:41.680Z,25.33
2022-11-14T04:28:09.924Z,25.43
2022-11-14T04:30:38.029Z,24.80
2022-11-14T04:33:07.352Z,22.73
2022-11-14T04:35:35.482Z,24.50
2022-11-14T04:38:03.944Z,24.20
2022-11-14T04:40:33.469Z,22.93
2022-11-14T04:43:01.800Z,25.60
2022-11-14T04:45:30.262Z,24.53
2022-11-14T04:47:58.392Z,24.40
2022-11-14T04:50:26.533Z,23.57
2022-11-14T04:52:54.942Z,24.33
2022-11-14T04:55:23.138Z,23.63
2022-11-14T04:57:57.165Z,23.83
2022-11-14T05:00:26.094Z,23.13
2022-11-14T05:02:54.263Z,22.90
2022-11-14T05:05:22.353Z,23.40
2022-11-14T05:07:50.442Z,23.10
2022-11-14T05:10:18.785Z,22.23
2022-11-14T05:12:46.911Z,22.07
2022-11-14T05:15:16.509Z,22.73
2022-11-14T05:17:44.775Z,23.37
2022-11-14T05:20:14.250Z,21.70
2022-11-14T05:22:42.397Z,23.07
2022-11-14T05:25:11.314Z,23.73
2022-11-14T05:27:39.492Z,22.80
2022-11-14T05:30:08.891Z,23.83
2022-11-14T05:32:38.424Z,23.27
2022-11-14T05:35:08.552Z,24.10
2022-11-14T05:37:36.823Z,26.17
2022-11-14T05:40:05.750Z,25.17
2022-11-14T05:42:33.882Z,24.80
2022-11-14T05:45:02.211Z,24.43
2022-11-14T05:47:30.484Z,26.33
2022-11-14T05:50:00.070Z,24.50
2022-11-14T05:52:28.162Z,28.40
2022-11-14T05:54:56.350Z,26.10
2022-11-14T05:57:24.584Z,23.73
2022-11-14T05:59:52.684Z,25.33
2022-11-14T06:02:20.989Z,24.97
2022-11-14T06:04:49.191Z,26.80
2022-11-14T06:07:20.564Z,26.00
2022-11-14T06:09:48.840Z,26.17
2022-11-14T06:12:17.193Z,26.23
2022-11-14T06:14:45.352Z,27.70
2022-11-14T06:17:13.506Z,25.63
2022-11-14T06:19:41.789Z,26.00
2022-11-14T06:22:10.948Z,25.93
2022-11-14T06:24:40.470Z,25.00
2022-11-14T06:27:08.632Z,26.53
2022-11-14T06:29:36.756Z,23.27
2022-11-14T06:32:05.050Z,24.90
2022-11-14T06:34:33.144Z,27.07
2022-11-14T06:37:01.372Z,29.53
2022-11-14T06:39:29.550Z,29.63
2022-11-14T06:41:59.073Z,26.70
2022-11-14T06:44:30.662Z,27.07
2022-11-14T06:46:59.371Z,26.00
2022-11-14T06:49:28.026Z,26.20
2022-11-14T06:51:56.482Z,27.87
2022-11-14T06:54:24.770Z,28.13
2022-11-14T06:56:52.873Z,27.10
2022-11-14T06:59:22.462Z,28.40
2022-11-14T07:01:50.626Z,27.73
2022-11-14T07:04:18.991Z,26.77
2022-11-14T07:06:47.277Z,27.37
2022-11-14T07:09:15.607Z,26.37
2022-11-14T07:11:46.272Z,26.97
2022-11-14T07:14:14.586Z,25.43
2022-11-14T07:16:44.125Z,27.47
2022-11-14T07:19:12.732Z,28.57
2022-11-14T07:21:41.123Z,26.97
2022-11-14T07:24:09.511Z,28.17
2022-11-14T07:26:37.715Z,25.57
2022-11-14T07:29:05.885Z,27.43
2022-11-14T07:31:34.022Z,28.10
2022-11-14T07:34:03.482Z,28.10
2022-11-14T07:36:31.597Z,31.67
2022-11-14T07:38:59.785Z,30.27
2022-11-14T07:41:27.942Z,32.90
2022-11-14T07:43:56.103Z,32.07
2022-11-14T07:46:24.561Z,29.50
2022-11-14T07:48:52.715Z,27.93
2022-11-14T07:51:25.199Z,26.87
2022-11-14T07:53:53.782Z,28.23
2022-11-14T07:56:22.403Z,27.40
2022-11-14T07:58:50.572Z,25.93
2022-11-14T08:01:18.799Z,27.53
2022-11-14T08:03:47.027Z,25.60
2022-11-14T08:06:17.132Z,24.97
2022-11-14T08:08:46.683Z,26.40
2022-11-14T08:11:23.066Z,27.17
2022-11-14T08:14:02.575Z,27.93
2022-11-14T08:16:30.782Z,25.60
2022-11-14T08:18:58.932Z,25.60
2022-11-14T08:21:28.052Z,25.77
2022-11-14T08:23:57.630Z,25.47
2022-11-14T08:26:27.942Z,26.37
2022-11-14T08:28:59.668Z,27.93
2022-11-14T08:31:28.415Z,28.80
2022-11-14T08:33:56.814Z,28.83
2022-11-14T08:36:24.974Z,26.13
2022-11-14T08:38:57.498Z,25.87
2022-11-14T08:41:30.743Z,25.70
2022-11-14T08:43:58.840Z,24.93
2022-11-14T08:46:26.992Z,25.70
2022-11-14T08:48:55.165Z,25.90
2022-11-14T08:51:23.342Z,27.07
2022-11-14T08:53:52.933Z,25.30
2022-11-14T08:56:21.186Z,23.37
2022-11-14T08:58:50.671Z,23.73
2022-11-14T09:01:18.902Z,25.00
2022-11-14T09:03:48.038Z,23.23
2022-11-14T09:06:16.251Z,22.43
2022-11-14T09:08:44.434Z,21.47
2022-11-14T09:11:16.639Z,20.53
2022-11-14T09:13:47.183Z,22.33
2022-11-14T09:16:16.672Z,21.03
2022-11-14T09:18:45.851Z,21.40
2022-11-14T09:21:13.945Z,20.40
2022-11-14T09:23:42.113Z,19.37
2022-11-14T09:26:11.712Z,18.57
2022-11-14T09:28:40.052Z,18.43
2022-11-14T09:31:10.232Z,18.37
2022-11-14T09:33:39.974Z,19.83
2022-11-14T09:36:10.792Z,19.17
2022-11-14T09:38:39.086Z,18.77
2022-11-14T09:41:24.954Z,20.43
2022-11-14T09:44:20.945Z,19.33
2022-11-14T09:46:51.101Z,18.60
2022-11-14T09:49:27.685Z,19.17
2022-11-14T09:52:01.672Z,19.13
2022-11-14T09:54:34.265Z,17.17
2022-11-14T09:57:02.547Z,18.00
2022-11-14T09:59:30.942Z,18.23
2022-11-14T10:02:03.289Z,17.53
2022-11-14T10:04:45.775Z,18.27
2022-11-14T10:07:22.629Z,15.90
2022-11-14T10:10:01.072Z,17.63
2022-11-14T10:12:41.005Z,16.03
2022-11-14T10:15:23.003Z,16.63
2022-11-14T10:17:58.762Z,16.63
2022-11-14T10:20:34.461Z,17.47
2022-11-14T10:23:13.974Z,17.47
2022-11-14T10:25:51.012Z,16.60
2022-11-14T10:28:33.169Z,16.03
2022-11-14T10:31:06.772Z,16.40
2022-11-14T10:33:41.143Z,16.50
2022-11-14T10:36:15.090Z,15.83
2022-11-14T10:38:48.383Z,15.50
2022-11-14T10:41:34.757Z,15.00
2022-11-14T10:44:04.932Z,16.50
2022-11-14T10:46:37.074Z,13.93
2022-11-14T10:49:16.261Z,13.77
2022-11-14T10:51:48.341Z,14.60
2022-11-14T10:54:19.355Z,13.57
2022-11-14T10:56:48.844Z,13.37
2022-11-14T10:59:17.375Z,14.33
2022-11-14T11:01:49.233Z,15.63
2022-11-14T11:04:23.698Z,14.57
2022-11-14T11:06:55.154Z,13.97
2022-11-14T11:09:45.427Z,13.17
2022-11-14T11:12:17.597Z,13.37
2022-11-14T11:14:46.195Z,12.70
2022-11-14T11:17:20.865Z,12.93
2022-11-14T11:19:50.114Z,13.37
2022-11-14T11:22:37.578Z,12.33
2022-11-14T11:25:24.943Z,12.07
2022-11-14T11:28:07.133Z,12.63
2022-11-14T11:30:35.382Z,11.60
2022-11-14T11:33:24.782Z,9.47
2022-11-14T11:35:55.455Z,7.17
2022-11-14T11:38:26.966Z,6.43
2022-11-14T11:40:58.110Z,6.40
2022-11-14T11:43:38.986Z,4.50
2022-11-14T11:46:14.725Z,4.67
2022-11-14T11:48:42.993Z,4.37
2022-11-14T11:51:16.223Z,4.47
2022-11-14T11:53:48.724Z,4.90
2022-11-14T11:56:20.880Z,5.17
2022-11-14T11:58:51.003Z,4.37
2022-11-14T12:01:19.942Z,4.40
2022-11-14T12:03:50.655Z,4.90
2022-11-14T12:06:24.934Z,5.00
2022-11-14T12:09:03.536Z,5.10
2022-11-14T12:11:34.021Z,4.87
2022-11-14T12:14:31.933Z,4.60
2022-11-14T12:17:22.432Z,4.50
2022-11-14T12:20:20.652Z,4.73
2022-11-14T12:23:13.124Z,4.97
2022-11-14T12:26:00.852Z,5.10
2022-11-14T12:28:53.711Z,5.33
2022-11-14T12:31:21.982Z,4.70
2022-11-14T12:33:54.552Z,4.67
2022-11-14T12:36:29.560Z,5.37
2022-11-14T12:38:58.172Z,5.03
2022-11-14T12:41:30.444Z,4.67
2022-11-14T12:44:20.763Z,4.57
2022-11-14T12:47:13.661Z,4.73
2022-11-14T12:50:00.592Z,4.87
2022-11-14T12:52:57.280Z,4.90
2022-11-14T12:55:56.082Z,4.87
2022-11-14T12:58:54.580Z,4.60
2022-11-14T13:01:34.816Z,4.43
2022-11-14T13:04:16.827Z,4.70
2022-11-14T13:06:51.954Z,4.77
2022-11-14T13:09:34.030Z,4.27
2022-11-14T13:12:37.752Z,4.37
2022-11-14T13:15:45.917Z,5.00
2022-11-14T13:18:41.601Z,4.97
2022-11-14T13:21:42.315Z,5.60
2022-11-14T13:24:14.137Z,5.97
2022-11-14T13:26:49.111Z,6.67
2022-11-14T13:30:00.327Z,5.07
2022-11-14T13:32:55.611Z,6.17
2022-11-14T13:35:32.323Z,5.73
2022-11-14T13:38:40.273Z,6.00
2022-11-14T13:41:24.416Z,5.93
2022-11-14T13:44:02.093Z,5.13
2022-11-14T13:46:44.082Z,5.90
2022-11-14T13:49:34.443Z,6.00
2022-11-14T13:52:02.808Z,5.97
2022-11-14T13:54:31.350Z,5.73
2022-11-14T13:57:06.149Z,6.53
2022-11-14T14:00:03.113Z,6.63
2022-11-14T14:03:00.753Z,5.97
2022-11-14T14:05:36.256Z,6.53
2022-11-14T14:08:14.631Z,6.17
2022-11-14T14:10:49.212Z,7.10
2022-11-14T14:13:35.261Z,6.50
2022-11-14T14:16:07.311Z,6.73
2022-11-14T14:18:49.166Z,7.03
2022-11-14T14:21:28.231Z,6.20
2022-11-14T14:24:03.142Z,6.60
2022-11-14T14:26:37.310Z,7.30
2022-11-14T14:29:14.922Z,7.73
2022-11-14T14:31:43.952Z,7.63
2022-11-14T14:34:31.242Z,7.70
2022-11-14T14:37:00.752Z,6.07
2022-11-14T14:39:30.540Z,6.23
2022-11-14T14:41:59.902Z,6.27
2022-11-14T14:44:30.012Z,6.07
2022-11-14T14:46:58.292Z,5.77
2022-11-14T14:49:29.712Z,5.83
2022-11-14T14:51:58.849Z,5.47
2022-11-14T14:54:30.166Z,6.13
2022-11-14T14:57:01.383Z,6.10
2022-11-14T14:59:31.525Z,5.63
2022-11-14T15:01:59.692Z,6.03
2022-11-14T15:04:29.243Z,6.13
2022-11-14T15:06:58.547Z,7.10
2022-11-14T15:09:29.939Z,6.43
2022-11-14T15:12:00.161Z,7.73
2022-11-14T15:14:31.482Z,6.90
2022-11-14T15:17:00.215Z,6.97
2022-11-14T15:19:32.817Z,6.70
2022-11-14T15:22:05.652Z,5.80
2022-11-14T15:24:35.364Z,6.57
2022-11-14T15:27:05.886Z,6.80
2022-11-14T15:29:34.166Z,6.60
2022-11-14T15:32:03.556Z,7.53
2022-11-14T15:34:34.121Z,9.27
2022-11-14T15:37:23.981Z,8.23
2022-11-14T15:39:53.792Z,9.50
2022-11-14T15:42:28.206Z,8.50
2022-11-14T15:44:56.522Z,7.27
2022-11-14T15:47:26.664Z,7.87
2022-11-14T15:49:59.821Z,8.00
2022-11-14T15:52:32.436Z,8.13
2022-11-14T15:55:03.792Z,7.63
2022-11-14T15:57:33.300Z,7.40
2022-11-14T16:00:01.578Z,7.83
2022-11-14T16:02:31.173Z,7.90
2022-11-14T16:05:00.653Z,8.20
2022-11-14T16:07:29.752Z,8.37
2022-11-14T16:09:58.640Z,8.20
2022-11-14T16:12:28.313Z,13.67
2022-11-14T16:14:56.485Z,11.03
2022-11-14T16:17:24.742Z,11.43
2022-11-14T16:19:52.957Z,10.07
2022-11-14T16:22:21.143Z,11.07
2022-11-14T16:24:49.372Z,10.90
2022-11-14T16:27:17.487Z,12.03
2022-11-14T16:29:47.204Z,12.73
2022-11-14T16:32:15.397Z,13.70
2022-11-14T16:34:44.060Z,12.73
2022-11-14T16:37:14.236Z,12.87
2022-11-14T16:39:42.369Z,13.80
2022-11-14T16:42:11.736Z,11.37
2022-11-14T16:44:42.930Z,10.43
2022-11-14T16:47:16.582Z,10.57
2022-11-14T16:49:44.772Z,12.37
2022-11-14T16:52:13.292Z,12.33
2022-11-14T16:54:41.400Z,12.83
2022-11-14T16:57:09.589Z,8.47
2022-11-14T16:59:38.337Z,8.60
2022-11-14T17:02:06.488Z,8.73
2022-11-14T17:04:36.193Z,8.30
2022-11-14T17:07:04.573Z,8.10
2022-11-14T17:09:33.130Z,8.80
2022-11-14T17:12:01.273Z,9.17
2022-11-14T17:14:29.464Z,12.60
2022-11-14T17:17:05.121Z,14.17
2022-11-14T17:19:33.294Z,18.07
2022-11-14T17:22:02.873Z,16.37
2022-11-14T17:24:31.639Z,16.73
2022-11-14T17:27:00.076Z,16.47
2022-11-14T17:29:28.352Z,14.30
2022-11-14T17:31:56.583Z,15.07
2022-11-14T17:34:24.693Z,14.20
2022-11-14T17:36:52.796Z,12.87
2022-11-14T17:39:22.733Z,12.50
2022-11-14T17:41:50.972Z,14.40
2022-11-14T17:44:19.134Z,13.73
2022-11-14T17:46:47.963Z,13.77
2022-11-14T17:49:16.263Z,13.77
2022-11-14T17:51:44.443Z,14.70
2022-11-14T17:54:13.035Z,15.13
2022-11-14T17:56:47.407Z,15.60
2022-11-14T17:59:18.595Z,16.27
2022-11-14T18:01:47.226Z,22.33
2022-11-14T18:04:15.452Z,18.47
2022-11-14T18:06:43.745Z,18.57
2022-11-14T18:09:14.373Z,19.23
2022-11-14T18:11:44.381Z,17.57
2022-11-14T18:14:14.506Z,17.13
2022-11-14T18:17:10.530Z,19.60
2022-11-14T18:19:31.944Z,22.80
2022-11-14T18:22:00.106Z,21.07
2022-11-14T18:24:28.272Z,21.33
2022-11-14T18:26:59.298Z,21.67
2022-11-14T18:29:28.600Z,21.80
2022-11-14T18:31:56.789Z,20.63
2022-11-14T18:34:24.873Z,20.90
2022-11-14T18:36:53.126Z,22.37
2022-11-14T18:39:21.224Z,21.33
2022-11-14T18:41:49.432Z,21.93
2022-11-14T18:44:21.313Z,22.90
2022-11-14T18:46:49.442Z,22.60
2022-11-14T18:49:18.033Z,22.23
2022-11-14T18:51:46.232Z,21.17
2022-11-14T18:54:16.321Z,22.17
2022-11-14T18:56:44.557Z,22.60
2022-11-14T18:59:12.932Z,21.93
2022-11-14T19:01:42.488Z,20.87
2022-11-14T19:04:11.742Z,21.40
2022-11-14T19:06:41.876Z,21.03
2022-11-14T19:09:12.017Z,20.97
2022-11-14T19:11:57.711Z,20.97
2022-11-14T19:14:27.114Z,20.53
2022-11-14T19:16:56.633Z,34.70
2022-11-14T19:19:25.002Z,21.37
2022-11-14T19:21:53.322Z,20.73
2022-11-14T19:24:21.422Z,21.17
2022-11-14T19:26:49.543Z,19.57
2022-11-14T19:29:17.681Z,20.67
2022-11-14T19:31:45.910Z,19.53
2022-11-14T19:34:16.222Z,19.53
2022-11-14T19:36:59.263Z,19.87
2022-11-14T19:39:28.492Z,17.07
2022-11-14T19:41:56.592Z,19.33
2022-11-14T19:44:24.752Z,18.43
2022-11-14T19:46:52.902Z,17.93
2022-11-14T19:49:22.483Z,19.73
2022-11-14T19:51:51.267Z,20.77
2022-11-14T19:54:19.365Z,22.07
2022-11-14T19:56:47.470Z,21.37
2022-11-14T19:59:18.976Z,20.43
2022-11-14T20:01:55.910Z,18.07
2022-11-14T20:04:25.532Z,16.70
2022-11-14T20:06:53.721Z,15.37
2022-11-14T20:09:21.932Z,14.77
2022-11-14T20:11:50.052Z,14.00
2022-11-14T20:14:18.295Z,15.10
2022-11-14T20:16:46.986Z,13.30
2022-11-14T20:19:16.269Z,12.67
2022-11-14T20:21:45.774Z,12.23
2022-11-14T20:24:17.814Z,12.50
2022-11-14T20:26:46.143Z,13.93
2022-11-14T20:29:14.332Z,14.40
2022-11-14T20:31:42.504Z,14.53
2022-11-14T20:34:11.926Z,14.70
2022-11-14T20:37:08.778Z,15.53
2022-11-14T20:39:29.531Z,12.53
2022-11-14T20:41:57.863Z,13.37
2022-11-14T20:44:26.056Z,13.77
2022-11-14T20:46:55.592Z,13.67
2022-11-14T20:49:23.742Z,14.83
2022-11-14T20:51:51.880Z,19.73
2022-11-14T20:54:19.992Z,22.77
2022-11-14T20:56:49.620Z,24.27
2022-11-14T20:59:17.803Z,22.43
2022-11-14T21:01:45.944Z,19.67
2022-11-14T21:04:14.153Z,18.97
2022-11-14T21:06:42.321Z,16.87
2022-11-14T21:09:11.240Z,16.13
2022-11-14T21:11:39.812Z,14.87
2022-11-14T21:14:09.417Z,14.60
2022-11-14T21:16:39.980Z,13.90
2022-11-14T21:19:08.485Z,14.27
2022-11-14T21:21:38.033Z,13.80
2022-11-14T21:24:07.174Z,14.87
2022-11-14T21:26:36.152Z,16.27
2022-11-14T21:29:06.211Z,15.63
2022-11-14T21:31:36.895Z,14.60
2022-11-14T21:34:06.782Z,14.10
2022-11-14T21:36:44.990Z,14.13
2022-11-14T21:39:15.718Z,15.30
2022-11-14T21:41:44.667Z,16.27
2022-11-14T21:44:14.766Z,15.33
2022-11-14T21:46:46.413Z,15.60
2022-11-14T21:49:14.577Z,16.10
2022-11-14T21:51:42.773Z,13.87
2022-11-14T21:54:11.234Z,14.33
2022-11-14T21:56:39.522Z,15.23
2022-11-14T21:59:15.116Z,17.30
2022-11-14T22:02:15.848Z,17.70
2022-11-14T22:04:43.964Z,18.30
2022-11-14T22:07:12.120Z,17.27
2022-11-14T22:09:45.170Z,18.87
2022-11-14T22:12:13.732Z,21.50
2022-11-14T22:14:41.882Z,21.30
2022-11-14T22:17:11.362Z,20.80
2022-11-14T22:19:39.566Z,21.23
2022-11-14T22:22:07.682Z,20.90
2022-11-14T22:24:35.780Z,21.90
2022-11-14T22:27:04.120Z,21.63
2022-11-14T22:29:32.262Z,22.33
2022-11-14T22:32:00.351Z,21.77
2022-11-14T22:34:29.891Z,20.90
2022-11-14T22:36:58.006Z,23.10
2022-11-14T22:39:26.083Z,20.07
2022-11-14T22:41:54.255Z,20.87
2022-11-14T22:44:22.463Z,21.00
2022-11-14T22:46:50.602Z,21.50
2022-11-14T22:49:21.266Z,19.23
2022-11-14T22:51:51.054Z,20.67
2022-11-14T22:54:20.911Z,22.20
2022-11-14T22:56:49.062Z,21.13
2022-11-14T22:59:17.263Z,20.83
2022-11-14T23:01:45.389Z,21.50
2022-11-14T23:04:13.606Z,22.10
2022-11-14T23:06:41.772Z,22.53
2022-11-14T23:09:11.432Z,19.67
2022-11-14T23:11:39.610Z,20.27
2022-11-14T23:14:07.745Z,20.47
2022-11-14T23:16:36.102Z,18.20
2022-11-14T23:19:06.104Z,21.03
2022-11-14T23:21:36.096Z,22.30
2022-11-14T23:24:06.753Z,20.47
2022-11-14T23:26:36.341Z,18.93
2022-11-14T23:29:04.877Z,25.17
2022-11-14T23:31:33.015Z,23.67
2022-11-14T23:34:01.199Z,18.63
2022-11-14T23:36:29.272Z,19.40
2022-11-14T23:38:57.600Z,19.27
2022-11-14T23:41:26.844Z,20.30
2022-11-14T23:43:56.381Z,18.17
2022-11-14T23:46:24.591Z,18.20
2022-11-14T23:48:53.541Z,18.17
2022-11-14T23:51:21.851Z,15.93
2022-11-14T23:53:49.973Z,18.70
2022-11-14T23:56:18.092Z,19.73
2022-11-14T23:58:46.222Z,21.90
